sensor_id;sensor_type;location;lat;lon;timestamp;temperature;humidity
27823;DHT22;29019;47.630;8.262;2023-07-31T00:01:10;23.30;61.80
27823;DHT22;29019;47.630;8.262;2023-07-31T00:05:10;23.30;61.80
27823;DHT22;29019;47.630;8.262;2023-07-31T00:09:11;23.30;61.90
27823;DHT22;29019;47.630;8.262;2023-07-31T00:13:12;23.30;61.90
27823;DHT22;29019;47.630;8.262;2023-07-31T00:17:12;23.30;61.90
27823;DHT22;29019;47.630;8.262;2023-07-31T00:21:13;23.30;61.90
27823;DHT22;29019;47.630;8.262;2023-07-31T00:25:13;23.30;61.90
27823;DHT22;29019;47.630;8.262;2023-07-31T00:29:14;23.30;61.90
27823;DHT22;29019;47.630;8.262;2023-07-31T00:33:14;23.30;61.90
27823;DHT22;29019;47.630;8.262;2023-07-31T00:37:15;23.30;61.90
27823;DHT22;29019;47.630;8.262;2023-07-31T00:41:15;23.30;61.80
27823;DHT22;29019;47.630;8.262;2023-07-31T00:45:16;23.30;61.80
27823;DHT22;29019;47.630;8.262;2023-07-31T00:49:16;23.30;61.90
27823;DHT22;29019;47.630;8.262;2023-07-31T00:53:17;23.40;61.90
27823;DHT22;29019;47.630;8.262;2023-07-31T00:57:18;23.30;61.80
27823;DHT22;29019;47.630;8.262;2023-07-31T01:01:18;23.30;61.80
27823;DHT22;29019;47.630;8.262;2023-07-31T01:05:20;23.30;61.80
27823;DHT22;29019;47.630;8.262;2023-07-31T01:09:29;23.30;61.80
27823;DHT22;29019;47.630;8.262;2023-07-31T01:13:32;23.30;61.90
27823;DHT22;29019;47.630;8.262;2023-07-31T01:17:32;23.30;61.80
27823;DHT22;29019;47.630;8.262;2023-07-31T01:29:56;23.30;61.90
27823;DHT22;29019;47.630;8.262;2023-07-31T01:34:00;23.30;61.90
27823;DHT22;29019;47.630;8.262;2023-07-31T01:38:01;23.30;61.80
27823;DHT22;29019;47.630;8.262;2023-07-31T01:42:02;23.30;61.90
27823;DHT22;29019;47.630;8.262;2023-07-31T01:46:02;23.30;61.90
27823;DHT22;29019;47.630;8.262;2023-07-31T01:50:03;23.30;61.90
27823;DHT22;29019;47.630;8.262;2023-07-31T01:54:04;23.30;61.90
27823;DHT22;29019;47.630;8.262;2023-07-31T01:58:04;23.30;62.00
27823;DHT22;29019;47.630;8.262;2023-07-31T02:02:05;23.30;61.90
27823;DHT22;29019;47.630;8.262;2023-07-31T02:06:06;23.30;62.80
27823;DHT22;29019;47.630;8.262;2023-07-31T02:10:06;23.30;61.90
27823;DHT22;29019;47.630;8.262;2023-07-31T02:14:07;23.30;61.90
27823;DHT22;29019;47.630;8.262;2023-07-31T02:18:07;23.30;61.90
27823;DHT22;29019;47.630;8.262;2023-07-31T02:22:08;23.30;61.90
27823;DHT22;29019;47.630;8.262;2023-07-31T02:26:08;23.30;61.90
27823;DHT22;29019;47.630;8.262;2023-07-31T02:30:09;23.30;61.90
27823;DHT22;29019;47.630;8.262;2023-07-31T02:34:10;23.30;61.90
27823;DHT22;29019;47.630;8.262;2023-07-31T02:38:10;23.30;61.90
27823;DHT22;29019;47.630;8.262;2023-07-31T02:42:12;23.30;61.90
27823;DHT22;29019;47.630;8.262;2023-07-31T02:46:13;23.30;61.90
27823;DHT22;29019;47.630;8.262;2023-07-31T02:50:13;23.30;61.90
27823;DHT22;29019;47.630;8.262;2023-07-31T02:54:14;23.30;61.90
27823;DHT22;29019;47.630;8.262;2023-07-31T02:58:14;23.30;61.90
27823;DHT22;29019;47.630;8.262;2023-07-31T03:02:15;23.30;61.90
27823;DHT22;29019;47.630;8.262;2023-07-31T03:06:15;23.30;61.90
27823;DHT22;29019;47.630;8.262;2023-07-31T03:10:16;23.30;61.90
27823;DHT22;29019;47.630;8.262;2023-07-31T03:14:16;23.30;61.90
27823;DHT22;29019;47.630;8.262;2023-07-31T03:18:17;23.30;61.90
27823;DHT22;29019;47.630;8.262;2023-07-31T03:22:17;23.30;61.90
27823;DHT22;29019;47.630;8.262;2023-07-31T03:26:18;23.30;61.90
27823;DHT22;29019;47.630;8.262;2023-07-31T03:30:18;23.30;61.90
27823;DHT22;29019;47.630;8.262;2023-07-31T03:34:19;23.30;62.00
27823;DHT22;29019;47.630;8.262;2023-07-31T03:38:19;23.30;62.00
27823;DHT22;29019;47.630;8.262;2023-07-31T03:42:20;23.30;62.00
27823;DHT22;29019;47.630;8.262;2023-07-31T03:46:21;23.20;62.00
27823;DHT22;29019;47.630;8.262;2023-07-31T03:50:21;23.20;62.00
27823;DHT22;29019;47.630;8.262;2023-07-31T03:54:22;23.20;61.90
27823;DHT22;29019;47.630;8.262;2023-07-31T03:58:22;23.20;61.90
27823;DHT22;29019;47.630;8.262;2023-07-31T04:02:23;23.20;61.90
27823;DHT22;29019;47.630;8.262;2023-07-31T04:06:23;23.20;61.90
27823;DHT22;29019;47.630;8.262;2023-07-31T04:10:24;23.30;62.00
27823;DHT22;29019;47.630;8.262;2023-07-31T04:14:25;23.30;62.00
27823;DHT22;29019;47.630;8.262;2023-07-31T04:18:25;23.30;61.90
27823;DHT22;29019;47.630;8.262;2023-07-31T04:22:26;23.30;62.80
27823;DHT22;29019;47.630;8.262;2023-07-31T04:26:27;23.30;62.70
27823;DHT22;29019;47.630;8.262;2023-07-31T04:30:27;23.20;61.90
27823;DHT22;29019;47.630;8.262;2023-07-31T04:34:28;23.20;61.90
27823;DHT22;29019;47.630;8.262;2023-07-31T04:38:28;23.20;61.90
27823;DHT22;29019;47.630;8.262;2023-07-31T04:42:29;23.20;61.90
27823;DHT22;29019;47.630;8.262;2023-07-31T04:46:29;23.30;62.00
27823;DHT22;29019;47.630;8.262;2023-07-31T04:50:30;23.30;61.90
27823;DHT22;29019;47.630;8.262;2023-07-31T04:54:31;23.30;61.90
27823;DHT22;29019;47.630;8.262;2023-07-31T04:58:31;23.30;62.00
27823;DHT22;29019;47.630;8.262;2023-07-31T05:02:32;23.20;61.90
27823;DHT22;29019;47.630;8.262;2023-07-31T05:06:32;23.20;61.90
27823;DHT22;29019;47.630;8.262;2023-07-31T05:10:33;23.20;61.90
27823;DHT22;29019;47.630;8.262;2023-07-31T05:14:33;23.30;62.10
27823;DHT22;29019;47.630;8.262;2023-07-31T05:18:34;23.20;62.00
27823;DHT22;29019;47.630;8.262;2023-07-31T05:22:34;23.20;62.00
27823;DHT22;29019;47.630;8.262;2023-07-31T05:26:35;23.20;62.10
27823;DHT22;29019;47.630;8.262;2023-07-31T05:30:35;23.20;62.00
27823;DHT22;29019;47.630;8.262;2023-07-31T05:34:36;23.20;62.00
27823;DHT22;29019;47.630;8.262;2023-07-31T05:38:36;23.20;62.00
27823;DHT22;29019;47.630;8.262;2023-07-31T05:42:37;23.20;61.90
27823;DHT22;29019;47.630;8.262;2023-07-31T05:46:38;23.20;61.90
27823;DHT22;29019;47.630;8.262;2023-07-31T05:50:39;23.20;61.90
27823;DHT22;29019;47.630;8.262;2023-07-31T05:54:41;23.20;61.90
27823;DHT22;29019;47.630;8.262;2023-07-31T05:58:42;23.20;62.00
27823;DHT22;29019;47.630;8.262;2023-07-31T06:02:42;23.30;62.00
27823;DHT22;29019;47.630;8.262;2023-07-31T06:06:43;23.20;61.90
27823;DHT22;29019;47.630;8.262;2023-07-31T06:10:43;23.20;61.90
27823;DHT22;29019;47.630;8.262;2023-07-31T06:14:44;23.20;61.90
27823;DHT22;29019;47.630;8.262;2023-07-31T06:18:44;23.20;61.90
27823;DHT22;29019;47.630;8.262;2023-07-31T06:22:45;23.20;61.90
27823;DHT22;29019;47.630;8.262;2023-07-31T06:26:45;23.20;61.90
27823;DHT22;29019;47.630;8.262;2023-07-31T06:30:46;23.20;61.90
27823;DHT22;29019;47.630;8.262;2023-07-31T06:34:47;23.20;61.90
27823;DHT22;29019;47.630;8.262;2023-07-31T06:38:48;23.20;62.00
27823;DHT22;29019;47.630;8.262;2023-07-31T06:42:48;23.20;61.90
27823;DHT22;29019;47.630;8.262;2023-07-31T06:46:49;23.20;62.00
27823;DHT22;29019;47.630;8.262;2023-07-31T06:50:49;23.20;62.00
27823;DHT22;29019;47.630;8.262;2023-07-31T06:55:02;23.20;62.00
27823;DHT22;29019;47.630;8.262;2023-07-31T06:59:04;23.20;62.00
27823;DHT22;29019;47.630;8.262;2023-07-31T07:03:04;23.20;62.10
27823;DHT22;29019;47.630;8.262;2023-07-31T07:07:05;23.20;62.10
27823;DHT22;29019;47.630;8.262;2023-07-31T07:11:05;23.20;62.20
27823;DHT22;29019;47.630;8.262;2023-07-31T07:15:06;23.20;62.10
27823;DHT22;29019;47.630;8.262;2023-07-31T07:19:07;23.20;62.00
27823;DHT22;29019;47.630;8.262;2023-07-31T07:23:07;23.20;62.10
27823;DHT22;29019;47.630;8.262;2023-07-31T07:27:08;23.20;62.10
27823;DHT22;29019;47.630;8.262;2023-07-31T07:31:08;23.20;62.00
27823;DHT22;29019;47.630;8.262;2023-07-31T07:35:09;23.20;61.90
27823;DHT22;29019;47.630;8.262;2023-07-31T07:39:10;23.20;62.00
27823;DHT22;29019;47.630;8.262;2023-07-31T07:43:11;23.20;62.70
27823;DHT22;29019;47.630;8.262;2023-07-31T07:47:12;23.20;62.00
27823;DHT22;29019;47.630;8.262;2023-07-31T07:51:13;23.20;61.90
27823;DHT22;29019;47.630;8.262;2023-07-31T07:55:13;23.20;62.00
27823;DHT22;29019;47.630;8.262;2023-07-31T07:59:14;23.20;61.90
27823;DHT22;29019;47.630;8.262;2023-07-31T08:03:14;23.20;61.90
27823;DHT22;29019;47.630;8.262;2023-07-31T08:07:15;23.20;61.90
27823;DHT22;29019;47.630;8.262;2023-07-31T08:11:15;23.20;62.00
27823;DHT22;29019;47.630;8.262;2023-07-31T08:15:16;23.20;61.90
27823;DHT22;29019;47.630;8.262;2023-07-31T08:19:16;23.20;61.90
27823;DHT22;29019;47.630;8.262;2023-07-31T08:23:17;23.20;61.90
27823;DHT22;29019;47.630;8.262;2023-07-31T08:27:17;23.20;62.00
27823;DHT22;29019;47.630;8.262;2023-07-31T08:31:18;23.20;62.00
27823;DHT22;29019;47.630;8.262;2023-07-31T08:35:19;23.10;62.70
27823;DHT22;29019;47.630;8.262;2023-07-31T08:39:19;23.20;62.00
27823;DHT22;29019;47.630;8.262;2023-07-31T08:43:20;23.20;62.00
27823;DHT22;29019;47.630;8.262;2023-07-31T08:47:21;23.20;62.00
27823;DHT22;29019;47.630;8.262;2023-07-31T08:51:22;23.20;62.00
27823;DHT22;29019;47.630;8.262;2023-07-31T08:55:23;23.10;61.90
27823;DHT22;29019;47.630;8.262;2023-07-31T08:59:24;23.20;61.90
27823;DHT22;29019;47.630;8.262;2023-07-31T09:03:25;23.20;61.90
27823;DHT22;29019;47.630;8.262;2023-07-31T09:07:26;23.20;61.90
27823;DHT22;29019;47.630;8.262;2023-07-31T09:11:27;23.20;61.90
27823;DHT22;29019;47.630;8.262;2023-07-31T09:15:29;23.20;61.90
27823;DHT22;29019;47.630;8.262;2023-07-31T09:19:32;23.20;61.90
27823;DHT22;29019;47.630;8.262;2023-07-31T09:23:40;23.20;61.90
27823;DHT22;29019;47.630;8.262;2023-07-31T09:27:49;23.20;61.90
27823;DHT22;29019;47.630;8.262;2023-07-31T09:31:50;23.20;61.80
27823;DHT22;29019;47.630;8.262;2023-07-31T09:35:50;23.20;61.90
27823;DHT22;29019;47.630;8.262;2023-07-31T09:39:51;23.20;61.80
27823;DHT22;29019;47.630;8.262;2023-07-31T09:43:55;23.20;61.90
27823;DHT22;29019;47.630;8.262;2023-07-31T09:47:56;23.20;61.90
27823;DHT22;29019;47.630;8.262;2023-07-31T09:51:57;23.20;61.90
27823;DHT22;29019;47.630;8.262;2023-07-31T09:56:00;23.20;61.80
27823;DHT22;29019;47.630;8.262;2023-07-31T10:00:01;23.20;61.80
27823;DHT22;29019;47.630;8.262;2023-07-31T10:04:01;23.20;61.80
27823;DHT22;29019;47.630;8.262;2023-07-31T10:08:03;23.10;61.80
27823;DHT22;29019;47.630;8.262;2023-07-31T10:12:04;23.10;61.80
27823;DHT22;29019;47.630;8.262;2023-07-31T10:16:10;23.20;61.90
27823;DHT22;29019;47.630;8.262;2023-07-31T10:20:10;23.10;61.80
27823;DHT22;29019;47.630;8.262;2023-07-31T10:24:11;23.10;61.80
27823;DHT22;29019;47.630;8.262;2023-07-31T10:28:12;23.20;61.90
27823;DHT22;29019;47.630;8.262;2023-07-31T10:32:12;23.20;62.70
27823;DHT22;29019;47.630;8.262;2023-07-31T10:36:18;23.10;61.70
27823;DHT22;29019;47.630;8.262;2023-07-31T10:40:19;23.20;61.80
27823;DHT22;29019;47.630;8.262;2023-07-31T10:44:23;23.20;61.80
27823;DHT22;29019;47.630;8.262;2023-07-31T10:48:23;23.20;61.80
27823;DHT22;29019;47.630;8.262;2023-07-31T10:52:24;23.20;61.80
27823;DHT22;29019;47.630;8.262;2023-07-31T10:56:27;23.20;61.80
27823;DHT22;29019;47.630;8.262;2023-07-31T11:00:28;23.20;61.80
27823;DHT22;29019;47.630;8.262;2023-07-31T11:04:28;23.20;61.80
27823;DHT22;29019;47.630;8.262;2023-07-31T11:08:32;23.20;61.80
27823;DHT22;29019;47.630;8.262;2023-07-31T11:12:32;23.20;61.80
27823;DHT22;29019;47.630;8.262;2023-07-31T11:16:34;23.20;61.70
27823;DHT22;29019;47.630;8.262;2023-07-31T11:20:35;23.20;61.80
27823;DHT22;29019;47.630;8.262;2023-07-31T11:24:35;23.20;61.70
27823;DHT22;29019;47.630;8.262;2023-07-31T11:28:36;23.20;61.70
27823;DHT22;29019;47.630;8.262;2023-07-31T11:32:37;23.20;61.70
27823;DHT22;29019;47.630;8.262;2023-07-31T11:36:38;23.20;61.70
27823;DHT22;29019;47.630;8.262;2023-07-31T11:40:42;23.20;61.70
27823;DHT22;29019;47.630;8.262;2023-07-31T11:44:43;23.20;61.70
27823;DHT22;29019;47.630;8.262;2023-07-31T11:48:48;23.20;61.70
27823;DHT22;29019;47.630;8.262;2023-07-31T11:52:48;23.20;61.80
27823;DHT22;29019;47.630;8.262;2023-07-31T11:56:49;23.20;61.70
27823;DHT22;29019;47.630;8.262;2023-07-31T12:00:51;23.20;61.70
27823;DHT22;29019;47.630;8.262;2023-07-31T12:04:52;23.20;61.80
27823;DHT22;29019;47.630;8.262;2023-07-31T12:08:52;23.20;61.70
27823;DHT22;29019;47.630;8.262;2023-07-31T12:13:06;23.20;61.70
27823;DHT22;29019;47.630;8.262;2023-07-31T12:17:06;23.20;61.60
27823;DHT22;29019;47.630;8.262;2023-07-31T12:21:08;23.20;61.60
27823;DHT22;29019;47.630;8.262;2023-07-31T12:25:14;23.20;61.70
27823;DHT22;29019;47.630;8.262;2023-07-31T12:29:15;23.20;61.60
27823;DHT22;29019;47.630;8.262;2023-07-31T12:33:16;23.20;61.60
27823;DHT22;29019;47.630;8.262;2023-07-31T12:37:18;23.20;61.60
27823;DHT22;29019;47.630;8.262;2023-07-31T12:41:20;23.30;61.60
27823;DHT22;29019;47.630;8.262;2023-07-31T12:45:21;23.30;61.60
27823;DHT22;29019;47.630;8.262;2023-07-31T12:49:21;23.20;61.50
27823;DHT22;29019;47.630;8.262;2023-07-31T12:53:22;23.20;61.50
27823;DHT22;29019;47.630;8.262;2023-07-31T12:57:22;23.30;61.60
27823;DHT22;29019;47.630;8.262;2023-07-31T13:01:23;23.30;61.60
27823;DHT22;29019;47.630;8.262;2023-07-31T13:05:23;23.20;61.50
27823;DHT22;29019;47.630;8.262;2023-07-31T13:09:24;23.30;61.60
27823;DHT22;29019;47.630;8.262;2023-07-31T13:13:25;23.30;61.60
27823;DHT22;29019;47.630;8.262;2023-07-31T13:17:25;23.20;61.50
27823;DHT22;29019;47.630;8.262;2023-07-31T13:21:28;23.20;61.50
27823;DHT22;29019;47.630;8.262;2023-07-31T13:25:28;23.20;61.50
27823;DHT22;29019;47.630;8.262;2023-07-31T13:29:29;23.30;61.60
27823;DHT22;29019;47.630;8.262;2023-07-31T13:33:30;23.30;61.60
27823;DHT22;29019;47.630;8.262;2023-07-31T13:37:31;23.30;61.60
27823;DHT22;29019;47.630;8.262;2023-07-31T13:41:31;23.20;61.50
27823;DHT22;29019;47.630;8.262;2023-07-31T13:45:32;23.20;61.50
27823;DHT22;29019;47.630;8.262;2023-07-31T13:49:32;23.30;61.60
27823;DHT22;29019;47.630;8.262;2023-07-31T13:53:33;23.30;61.60
27823;DHT22;29019;47.630;8.262;2023-07-31T13:57:34;23.30;61.50
27823;DHT22;29019;47.630;8.262;2023-07-31T14:01:35;23.30;61.50
27823;DHT22;29019;47.630;8.262;2023-07-31T14:05:35;23.30;61.50
27823;DHT22;29019;47.630;8.262;2023-07-31T14:09:36;23.30;61.50
27823;DHT22;29019;47.630;8.262;2023-07-31T14:13:36;23.30;61.50
27823;DHT22;29019;47.630;8.262;2023-07-31T14:17:37;23.30;61.40
27823;DHT22;29019;47.630;8.262;2023-07-31T14:21:37;23.30;61.50
27823;DHT22;29019;47.630;8.262;2023-07-31T14:25:38;23.30;61.30
27823;DHT22;29019;47.630;8.262;2023-07-31T14:29:38;23.30;61.30
27823;DHT22;29019;47.630;8.262;2023-07-31T14:33:39;23.30;61.40
27823;DHT22;29019;47.630;8.262;2023-07-31T14:37:40;23.30;61.30
27823;DHT22;29019;47.630;8.262;2023-07-31T14:41:41;23.30;61.30
27823;DHT22;29019;47.630;8.262;2023-07-31T14:45:42;23.30;61.30
27823;DHT22;29019;47.630;8.262;2023-07-31T14:49:42;23.30;61.30
27823;DHT22;29019;47.630;8.262;2023-07-31T14:53:43;23.30;61.30
27823;DHT22;29019;47.630;8.262;2023-07-31T14:57:43;23.30;61.30
27823;DHT22;29019;47.630;8.262;2023-07-31T15:01:44;23.30;61.30
27823;DHT22;29019;47.630;8.262;2023-07-31T15:05:44;23.30;61.30
27823;DHT22;29019;47.630;8.262;2023-07-31T15:09:45;23.30;61.40
27823;DHT22;29019;47.630;8.262;2023-07-31T15:13:46;23.30;61.40
27823;DHT22;29019;47.630;8.262;2023-07-31T15:17:46;23.30;61.30
27823;DHT22;29019;47.630;8.262;2023-07-31T15:21:47;23.30;61.30
27823;DHT22;29019;47.630;8.262;2023-07-31T15:25:47;23.30;61.30
27823;DHT22;29019;47.630;8.262;2023-07-31T15:29:49;23.30;61.30
27823;DHT22;29019;47.630;8.262;2023-07-31T15:33:50;23.30;61.30
27823;DHT22;29019;47.630;8.262;2023-07-31T15:37:50;23.30;61.30
27823;DHT22;29019;47.630;8.262;2023-07-31T15:41:51;23.30;61.20
27823;DHT22;29019;47.630;8.262;2023-07-31T15:45:51;23.30;61.30
27823;DHT22;29019;47.630;8.262;2023-07-31T15:49:52;23.30;61.30
27823;DHT22;29019;47.630;8.262;2023-07-31T15:53:53;23.30;61.20
27823;DHT22;29019;47.630;8.262;2023-07-31T15:57:53;23.30;61.20
27823;DHT22;29019;47.630;8.262;2023-07-31T16:01:54;23.30;61.20
27823;DHT22;29019;47.630;8.262;2023-07-31T16:05:54;23.30;61.20
27823;DHT22;29019;47.630;8.262;2023-07-31T16:09:55;23.30;61.20
27823;DHT22;29019;47.630;8.262;2023-07-31T16:13:55;23.30;61.20
27823;DHT22;29019;47.630;8.262;2023-07-31T16:17:56;23.30;61.20
27823;DHT22;29019;47.630;8.262;2023-07-31T16:21:57;23.30;61.30
27823;DHT22;29019;47.630;8.262;2023-07-31T16:25:57;23.30;61.20
27823;DHT22;29019;47.630;8.262;2023-07-31T16:29:58;23.30;61.20
27823;DHT22;29019;47.630;8.262;2023-07-31T16:34:00;23.30;61.20
27823;DHT22;29019;47.630;8.262;2023-07-31T16:38:01;23.30;61.20
27823;DHT22;29019;47.630;8.262;2023-07-31T16:42:02;23.30;61.30
27823;DHT22;29019;47.630;8.262;2023-07-31T16:46:02;23.30;61.30
27823;DHT22;29019;47.630;8.262;2023-07-31T16:50:03;23.30;61.30
27823;DHT22;29019;47.630;8.262;2023-07-31T16:54:03;23.30;61.40
27823;DHT22;29019;47.630;8.262;2023-07-31T16:58:04;23.30;61.30
27823;DHT22;29019;47.630;8.262;2023-07-31T17:02:04;23.30;61.30
27823;DHT22;29019;47.630;8.262;2023-07-31T17:06:05;23.30;61.30
27823;DHT22;29019;47.630;8.262;2023-07-31T17:10:06;23.30;61.30
27823;DHT22;29019;47.630;8.262;2023-07-31T17:14:06;23.30;61.30
27823;DHT22;29019;47.630;8.262;2023-07-31T17:18:07;23.30;61.30
27823;DHT22;29019;47.630;8.262;2023-07-31T17:22:09;23.30;61.30
27823;DHT22;29019;47.630;8.262;2023-07-31T17:26:09;23.30;61.30
27823;DHT22;29019;47.630;8.262;2023-07-31T17:30:12;23.30;61.30
27823;DHT22;29019;47.630;8.262;2023-07-31T17:34:13;23.30;61.20
27823;DHT22;29019;47.630;8.262;2023-07-31T17:38:13;23.30;61.30
27823;DHT22;29019;47.630;8.262;2023-07-31T17:42:14;23.30;61.20
27823;DHT22;29019;47.630;8.262;2023-07-31T17:46:14;23.30;61.30
27823;DHT22;29019;47.630;8.262;2023-07-31T17:50:15;23.30;61.20
27823;DHT22;29019;47.630;8.262;2023-07-31T17:54:15;23.30;61.20
27823;DHT22;29019;47.630;8.262;2023-07-31T17:58:16;23.30;61.20
27823;DHT22;29019;47.630;8.262;2023-07-31T18:02:16;23.30;61.20
27823;DHT22;29019;47.630;8.262;2023-07-31T18:06:17;23.30;61.20
27823;DHT22;29019;47.630;8.262;2023-07-31T18:10:17;23.30;61.20
27823;DHT22;29019;47.630;8.262;2023-07-31T18:14:18;23.40;61.30
27823;DHT22;29019;47.630;8.262;2023-07-31T18:18:21;23.30;61.20
27823;DHT22;29019;47.630;8.262;2023-07-31T18:22:22;23.30;61.20
27823;DHT22;29019;47.630;8.262;2023-07-31T18:26:22;23.30;61.30
27823;DHT22;29019;47.630;8.262;2023-07-31T18:30:23;23.30;61.30
27823;DHT22;29019;47.630;8.262;2023-07-31T18:34:23;23.30;61.30
27823;DHT22;29019;47.630;8.262;2023-07-31T18:38:24;23.30;61.30
27823;DHT22;29019;47.630;8.262;2023-07-31T18:42:25;23.30;61.30
27823;DHT22;29019;47.630;8.262;2023-07-31T18:46:25;23.30;61.30
27823;DHT22;29019;47.630;8.262;2023-07-31T18:50:26;23.30;61.30
27823;DHT22;29019;47.630;8.262;2023-07-31T18:54:26;23.30;61.30
27823;DHT22;29019;47.630;8.262;2023-07-31T18:58:27;23.30;61.30
27823;DHT22;29019;47.630;8.262;2023-07-31T19:02:27;23.30;61.30
27823;DHT22;29019;47.630;8.262;2023-07-31T19:06:28;23.30;61.20
27823;DHT22;29019;47.630;8.262;2023-07-31T19:10:34;23.30;61.30
27823;DHT22;29019;47.630;8.262;2023-07-31T19:14:35;23.30;61.30
27823;DHT22;29019;47.630;8.262;2023-07-31T19:18:35;23.30;61.30
27823;DHT22;29019;47.630;8.262;2023-07-31T19:22:36;23.30;61.30
27823;DHT22;29019;47.630;8.262;2023-07-31T19:26:37;23.30;61.30
27823;DHT22;29019;47.630;8.262;2023-07-31T19:30:37;23.30;61.20
27823;DHT22;29019;47.630;8.262;2023-07-31T19:34:39;23.30;61.20
27823;DHT22;29019;47.630;8.262;2023-07-31T19:38:40;23.30;61.20
27823;DHT22;29019;47.630;8.262;2023-07-31T19:42:41;23.30;61.30
27823;DHT22;29019;47.630;8.262;2023-07-31T19:46:41;23.30;61.30
27823;DHT22;29019;47.630;8.262;2023-07-31T19:50:42;23.30;61.20
27823;DHT22;29019;47.630;8.262;2023-07-31T19:54:42;23.40;61.30
27823;DHT22;29019;47.630;8.262;2023-07-31T19:58:43;23.30;61.20
27823;DHT22;29019;47.630;8.262;2023-07-31T20:02:43;23.30;61.30
27823;DHT22;29019;47.630;8.262;2023-07-31T20:06:44;23.30;61.30
27823;DHT22;29019;47.630;8.262;2023-07-31T20:10:45;23.30;61.30
27823;DHT22;29019;47.630;8.262;2023-07-31T20:14:46;23.30;61.30
27823;DHT22;29019;47.630;8.262;2023-07-31T20:18:48;23.30;61.30
27823;DHT22;29019;47.630;8.262;2023-07-31T20:22:48;23.30;61.30
27823;DHT22;29019;47.630;8.262;2023-07-31T20:26:49;23.30;61.30
27823;DHT22;29019;47.630;8.262;2023-07-31T20:30:49;23.30;61.30
27823;DHT22;29019;47.630;8.262;2023-07-31T20:34:50;23.30;61.30
27823;DHT22;29019;47.630;8.262;2023-07-31T20:38:51;23.30;61.30
27823;DHT22;29019;47.630;8.262;2023-07-31T20:42:55;23.30;61.30
27823;DHT22;29019;47.630;8.262;2023-07-31T20:46:56;23.30;61.30
27823;DHT22;29019;47.630;8.262;2023-07-31T20:51:00;23.40;61.90
27823;DHT22;29019;47.630;8.262;2023-07-31T20:55:01;23.30;61.50
27823;DHT22;29019;47.630;8.262;2023-07-31T20:59:01;23.40;62.00
27823;DHT22;29019;47.630;8.262;2023-07-31T21:03:02;23.40;63.20
27823;DHT22;29019;47.630;8.262;2023-07-31T21:07:03;23.40;64.40
27823;DHT22;29019;47.630;8.262;2023-07-31T21:11:03;23.50;63.60
27823;DHT22;29019;47.630;8.262;2023-07-31T21:15:04;23.50;63.60
27823;DHT22;29019;47.630;8.262;2023-07-31T21:19:04;23.50;63.80
27823;DHT22;29019;47.630;8.262;2023-07-31T21:23:05;23.50;63.90
27823;DHT22;29019;47.630;8.262;2023-07-31T21:27:08;23.50;62.90
27823;DHT22;29019;47.630;8.262;2023-07-31T21:31:12;23.50;63.00
27823;DHT22;29019;47.630;8.262;2023-07-31T21:35:13;23.50;63.80
27823;DHT22;29019;47.630;8.262;2023-07-31T21:39:14;23.50;62.40
27823;DHT22;29019;47.630;8.262;2023-07-31T21:43:14;23.50;62.60
27823;DHT22;29019;47.630;8.262;2023-07-31T21:47:15;23.50;63.30
27823;DHT22;29019;47.630;8.262;2023-07-31T21:51:17;23.50;63.50
27823;DHT22;29019;47.630;8.262;2023-07-31T21:55:18;23.50;63.40
27823;DHT22;29019;47.630;8.262;2023-07-31T21:59:18;23.50;62.80
27823;DHT22;29019;47.630;8.262;2023-07-31T22:03:19;23.50;63.10
27823;DHT22;29019;47.630;8.262;2023-07-31T22:07:19;23.50;63.60
27823;DHT22;29019;47.630;8.262;2023-07-31T22:11:20;23.50;63.20
27823;DHT22;29019;47.630;8.262;2023-07-31T22:15:21;23.50;63.30
27823;DHT22;29019;47.630;8.262;2023-07-31T22:19:21;23.50;63.40
27823;DHT22;29019;47.630;8.262;2023-07-31T22:23:22;23.50;63.50
27823;DHT22;29019;47.630;8.262;2023-07-31T22:27:23;23.50;63.40
27823;DHT22;29019;47.630;8.262;2023-07-31T22:31:23;23.50;63.00
27823;DHT22;29019;47.630;8.262;2023-07-31T22:35:24;23.60;63.50
27823;DHT22;29019;47.630;8.262;2023-07-31T22:39:24;23.60;63.50
27823;DHT22;29019;47.630;8.262;2023-07-31T22:43:25;23.60;63.50
27823;DHT22;29019;47.630;8.262;2023-07-31T22:47:25;23.50;63.40
27823;DHT22;29019;47.630;8.262;2023-07-31T22:51:26;23.60;63.50
27823;DHT22;29019;47.630;8.262;2023-07-31T22:55:26;23.60;63.30
27823;DHT22;29019;47.630;8.262;2023-07-31T22:59:27;23.60;63.40
27823;DHT22;29019;47.630;8.262;2023-07-31T23:03:27;23.60;63.60
27823;DHT22;29019;47.630;8.262;2023-07-31T23:07:28;23.60;63.60
27823;DHT22;29019;47.630;8.262;2023-07-31T23:11:28;23.60;64.20
27823;DHT22;29019;47.630;8.262;2023-07-31T23:15:29;23.60;63.20
27823;DHT22;29019;47.630;8.262;2023-07-31T23:19:30;23.60;63.10
27823;DHT22;29019;47.630;8.262;2023-07-31T23:23:30;23.60;63.00
27823;DHT22;29019;47.630;8.262;2023-07-31T23:27:31;23.60;62.80
27823;DHT22;29019;47.630;8.262;2023-07-31T23:31:31;23.60;63.20
27823;DHT22;29019;47.630;8.262;2023-07-31T23:35:32;23.60;63.10
27823;DHT22;29019;47.630;8.262;2023-07-31T23:39:33;23.50;63.10
27823;DHT22;29019;47.630;8.262;2023-07-31T23:43:33;23.60;63.00
27823;DHT22;29019;47.630;8.262;2023-07-31T23:47:34;23.60;63.10
27823;DHT22;29019;47.630;8.262;2023-07-31T23:51:35;23.60;63.00
27823;DHT22;29019;47.630;8.262;2023-07-31T23:55:36;23.60;63.00
27823;DHT22;29019;47.630;8.262;2023-07-31T23:59:37;23.60;62.80
